Time;durP1;ratioP1;P1;durP2;ratioP2;P2;SDS_P1;SDS_P2;PMS_P1;PMS_P2;Temp;Humidity;BMP_temperature;BMP_pressure;BME280_temperature;BME280_humidity;BME280_pressure;Samples;Min_cycle;Max_cycle;Signal;HPM_P1;HPM_P2
2024/04/04 00:12:27;;;;;;;17.70;7.60;;;;;;;3.39;76.10;100051.86;666369;1264;138990;-82
2024/04/04 00:27:30;;;;;;;14.50;6.80;;;;;;;4.05;76.43;100043.77;666067;1264;140187;-82
2024/04/04 00:42:33;;;;;;;26.60;12.00;;;;;;;4.35;76.10;100041.14;665816;1264;138988;-83
2024/04/04 00:57:38;;;;;;;10.90;5.40;;;;;;;4.26;76.34;100040.50;666070;1261;139010;-82
2024/04/04 01:12:41;;;;;;;9.00;4.80;;;;;;;4.23;75.99;100050.54;666851;1264;139854;-82
2024/04/04 01:27:49;;;;;;;13.40;7.70;;;;;;;4.33;75.94;100050.45;665800;1260;139585;-82
2024/04/04 01:42:52;;;;;;;10.30;5.70;;;;;;;4.25;76.13;100041.58;665831;1266;138582;-82
2024/04/04 01:57:59;;;;;;;11.30;6.60;;;;;;;4.26;75.48;100042.55;666653;1276;139869;-82
2024/04/04 02:13:03;;;;;;;9.50;5.60;;;;;;;4.39;75.47;100035.27;665459;1265;139385;-84
2024/04/04 02:28:06;;;;;;;10.00;5.20;;;;;;;4.31;75.83;100029.10;665687;1264;139145;-82
2024/04/04 02:43:10;;;;;;;13.50;6.80;;;;;;;4.31;75.73;100018.00;668940;1265;139694;-82
2024/04/04 02:58:13;;;;;;;12.20;7.90;;;;;;;4.28;75.65;99996.89;666208;1262;139913;-83
2024/04/04 03:13:17;;;;;;;19.90;9.10;;;;;;;4.27;76.03;100010.97;665702;1264;138852;-82
2024/04/04 03:28:20;;;;;;;13.00;6.30;;;;;;;4.30;75.57;100018.39;665686;1267;139004;-82
2024/04/04 03:43:23;;;;;;;13.60;6.20;;;;;;;4.42;75.45;100011.17;666373;1278;139862;-83
2024/04/04 03:58:28;;;;;;;11.50;4.80;;;;;;;4.43;76.20;100018.75;668062;1265;140470;-82
2024/04/04 04:13:33;;;;;;;13.40;5.50;;;;;;;4.34;75.52;100031.52;665819;1264;138797;-82
2024/04/04 04:28:36;;;;;;;12.70;6.10;;;;;;;4.25;76.09;100041.39;665957;1264;138935;-84
2024/04/04 04:43:42;;;;;;;7.60;4.20;;;;;;;4.27;76.20;100040.77;665812;1263;181673;-81
2024/04/04 04:58:45;;;;;;;19.30;9.50;;;;;;;4.28;77.39;100024.11;666048;1262;139439;-82
2024/04/04 05:13:49;;;;;;;9.80;5.10;;;;;;;4.39;77.68;100022.52;665987;1266;138846;-82
2024/04/04 05:28:55;;;;;;;24.30;10.70;;;;;;;4.32;78.13;100029.36;666045;1274;139504;-85
2024/04/04 05:43:59;;;;;;;32.20;11.20;;;;;;;4.45;78.62;100021.05;665571;1274;139209;-84
2024/04/04 05:59:02;;;;;;;51.60;26.30;;;;;;;4.60;78.94;100016.80;665893;1265;139885;-80
2024/04/04 06:14:05;;;;;;;49.90;25.30;;;;;;;4.69;79.26;100019.80;668031;1264;139836;-81
2024/04/04 06:29:08;;;;;;;16.30;9.00;;;;;;;4.63;80.04;100015.86;666747;1263;139736;-82
2024/04/04 06:44:11;;;;;;;55.50;27.20;;;;;;;4.76;80.30;100010.71;668713;1264;139426;-81
2024/04/04 06:59:14;;;;;;;109.10;33.10;;;;;;;4.93;80.15;99998.92;665350;1262;139117;-84
2024/04/04 07:14:18;;;;;;;52.50;19.80;;;;;;;5.24;80.93;99995.44;666175;1265;139307;-82
2024/04/04 07:29:21;;;;;;;65.10;22.70;;;;;;;5.20;80.70;99998.12;665447;1276;140138;-81
2024/04/04 07:44:24;;;;;;;41.40;19.50;;;;;;;5.33;81.27;99998.48;668791;1265;139962;-82
2024/04/04 07:59:28;;;;;;;35.50;16.50;;;;;;;5.53;82.30;99996.10;669066;1273;139373;-82
2024/04/04 08:14:32;;;;;;;76.50;26.90;;;;;;;5.78;82.50;99987.27;666812;1264;139132;-82
2024/04/04 08:29:35;;;;;;;46.00;16.40;;;;;;;5.94;82.44;99984.21;666285;1264;139982;-81
2024/04/04 08:44:40;;;;;;;287.10;94.00;;;;;;;5.91;83.11;99992.60;666091;1267;140099;-83
2024/04/04 08:59:54;;;;;;;182.30;68.80;;;;;;;6.05;83.70;99986.72;666062;1266;140112;-83
2024/04/04 09:15:00;;;;;;;28.30;12.70;;;;;;;6.18;84.27;99979.34;673697;1261;139765;-84
2024/04/04 09:30:10;;;;;;;73.70;26.00;;;;;;;6.52;84.86;99967.71;676838;1262;139192;-86
2024/04/04 09:48:32;;;;;;;59.90;24.20;;;;;;;6.91;86.33;99973.27;650394;1305;545052;-82
2024/04/04 10:06:35;;;;;;;214.50;69.90;;;;;;;7.17;87.37;99966.96;650840;1297;545586;-83
2024/04/04 10:47:16;;;;;;;109.20;35.80;;;;;;;7.54;96.27;99950.05;647481;1295;544874;-79
2024/04/04 11:02:19;;;;;;;56.20;24.30;;;;;;;8.95;89.96;99942.96;665435;1272;139418;-82
2024/04/04 11:17:23;;;;;;;55.60;25.90;;;;;;;9.70;87.98;99931.29;663442;1272;138795;-81
2024/04/04 11:32:27;;;;;;;117.30;45.80;;;;;;;9.85;88.60;99931.56;664675;1269;138171;-83
2024/04/04 11:47:30;;;;;;;47.40;25.10;;;;;;;10.47;88.32;99921.54;663545;1269;139709;-81
2024/04/04 12:02:33;;;;;;;53.30;28.60;;;;;;;10.77;88.20;99924.17;663747;1272;139065;-81
2024/04/04 12:17:38;;;;;;;78.70;41.10;;;;;;;10.76;87.80;99914.16;664682;1269;138679;-81
2024/04/04 12:32:41;;;;;;;51.50;30.50;;;;;;;10.70;87.80;99904.91;664420;1268;139152;-83
2024/04/04 12:47:45;;;;;;;55.80;31.80;;;;;;;10.55;89.00;99894.59;667112;1259;139031;-83
2024/04/04 13:02:48;;;;;;;73.20;41.10;;;;;;;10.65;90.09;99880.40;667913;1260;139241;-85
2024/04/04 13:17:51;;;;;;;70.50;40.00;;;;;;;11.38;90.82;99874.58;670829;1256;139351;-82
2024/04/04 13:32:55;;;;;;;72.90;38.80;;;;;;;12.47;89.18;99851.48;669723;1258;139569;-85
2024/04/04 13:48:03;;;;;;;61.40;35.20;;;;;;;12.29;88.65;99839.31;671569;1258;277076;-83
2024/04/04 14:03:06;;;;;;;98.80;44.90;;;;;;;12.42;89.04;99841.29;671005;1262;139034;-82
2024/04/04 14:18:09;;;;;;;83.40;42.50;;;;;;;12.51;90.09;99818.81;670965;1257;140064;-82
2024/04/04 14:33:25;;;;;;;82.80;39.50;;;;;;;12.55;90.11;99800.50;673249;1262;139176;-81
2024/04/04 14:48:29;;;;;;;46.50;29.30;;;;;;;12.30;90.68;99781.84;673840;1262;139833;-82
2024/04/04 15:03:33;;;;;;;137.00;65.30;;;;;;;12.20;91.48;99771.67;669856;1275;139569;-81
2024/04/04 15:18:37;;;;;;;176.50;91.80;;;;;;;12.31;92.70;99753.52;669501;1262;138554;-82
2024/04/04 15:33:40;;;;;;;89.00;43.90;;;;;;;12.34;93.46;99748.30;671430;1263;139789;-80
2024/04/04 15:48:43;;;;;;;58.60;33.90;;;;;;;12.55;94.35;99738.57;672176;1263;140244;-80
2024/04/04 16:03:46;;;;;;;93.30;45.30;;;;;;;12.92;94.46;99725.30;671014;1262;139105;-82
2024/04/04 16:18:50;;;;;;;45.60;27.20;;;;;;;12.96;94.36;99718.67;677696;1262;138418;-80
2024/04/04 16:33:53;;;;;;;79.20;39.10;;;;;;;13.09;94.25;99718.48;673092;1262;139110;-82
2024/04/04 16:48:56;;;;;;;50.20;26.70;;;;;;;13.10;94.12;99711.36;672107;1262;139002;-81
2024/04/04 17:04:02;;;;;;;115.10;46.00;;;;;;;12.91;94.04;99696.23;673044;1263;139491;-81
2024/04/04 17:19:05;;;;;;;220.50;75.40;;;;;;;12.79;94.56;99691.17;670729;1274;140858;-82
2024/04/04 17:34:10;;;;;;;147.80;56.20;;;;;;;12.56;95.04;99685.33;670012;1265;140260;-81
2024/04/04 17:49:17;;;;;;;97.10;40.00;;;;;;;12.57;95.32;99681.98;669698;1262;139880;-81
2024/04/04 18:04:20;;;;;;;124.10;44.40;;;;;;;12.63;96.29;99685.99;670456;1262;139763;-81
2024/04/04 18:19:24;;;;;;;92.70;37.50;;;;;;;12.58;97.58;99686.91;672936;1264;22607;-81
2024/04/04 18:34:48;;;;;;;99.70;39.30;;;;;;;12.44;97.81;99679.38;670307;1260;25409;-81
2024/04/04 18:49:51;;;;;;;88.90;42.50;;;;;;;12.43;98.56;99672.71;670163;1262;22639;-82
2024/04/04 19:05:15;;;;;;;102.70;45.60;;;;;;;12.53;99.91;99661.67;670524;1262;25336;-82
2024/04/04 19:20:21;;;;;;;74.20;36.00;;;;;;;12.59;99.99;99650.52;671644;1265;23337;-82
2024/04/04 19:35:26;;;;;;;53.10;29.00;;;;;;;12.62;100.00;99642.94;672138;1263;138892;-81
2024/04/04 19:50:29;;;;;;;54.70;32.00;;;;;;;12.63;100.00;99627.98;667321;1263;22547;-82
2024/04/04 20:05:35;;;;;;;199.20;68.60;;;;;;;12.63;100.00;99611.48;668441;1263;23027;-84
2024/04/04 20:20:41;;;;;;;62.50;31.10;;;;;;;12.70;100.00;99602.15;667183;1266;138601;-81
2024/04/04 20:36:04;;;;;;;44.10;26.00;;;;;;;12.71;100.00;99576.06;668679;1262;22712;-82
2024/04/04 20:51:10;;;;;;;38.60;24.30;;;;;;;12.72;100.00;99555.27;668490;1263;22536;-82
2024/04/04 21:06:13;;;;;;;37.60;22.90;;;;;;;12.79;100.00;99550.42;668649;1262;25493;-81
2024/04/04 21:21:17;;;;;;;34.30;20.60;;;;;;;12.87;100.00;99537.08;668378;1264;22378;-81
2024/04/04 21:36:20;;;;;;;32.50;19.40;;;;;;;13.09;100.00;99520.73;669334;1262;22864;-82
2024/04/04 21:51:23;;;;;;;28.00;18.50;;;;;;;13.23;100.00;99513.83;668906;1263;22626;-81
2024/04/04 22:06:29;;;;;;;32.60;16.80;;;;;;;13.37;100.00;99518.33;669197;1266;139367;-81
2024/04/04 22:21:34;;;;;;;25.90;16.50;;;;;;;13.47;100.00;99517.95;667494;1263;139863;-81
2024/04/04 22:36:38;;;;;;;24.00;16.20;;;;;;;13.64;100.00;99526.08;668196;1273;139310;-82
2024/04/04 22:51:41;;;;;;;33.70;17.70;;;;;;;13.72;100.00;99538.11;667448;1273;269295;-83
2024/04/04 23:06:45;;;;;;;23.70;15.50;;;;;;;13.66;100.00;99542.38;666777;1264;139834;-81
2024/04/04 23:21:48;;;;;;;19.50;12.60;;;;;;;13.61;100.00;99550.79;666554;1263;139017;-80
2024/04/04 23:36:51;;;;;;;19.00;10.80;;;;;;;13.56;100.00;99553.42;667007;1263;139907;-81
2024/04/04 23:51:54;;;;;;;15.00;10.70;;;;;;;13.52;100.00;99559.66;667656;1260;139609;-80
